createdAt,value
2018-09-26T00:02:08.667Z,3.23
2018-09-26T00:04:43.127Z,3.20
2018-09-26T00:07:12.538Z,3.97
2018-09-26T00:09:41.966Z,3.93
2018-09-26T00:12:11.435Z,3.47
2018-09-26T00:14:40.782Z,2.90
2018-09-26T00:17:10.106Z,3.00
2018-09-26T00:19:39.515Z,3.53
2018-09-26T00:22:09.644Z,3.30
2018-09-26T00:24:38.988Z,3.63
2018-09-26T00:27:08.449Z,3.13
2018-09-26T00:29:37.795Z,3.37
2018-09-26T00:32:07.299Z,4.00
2018-09-26T00:34:36.766Z,3.33
2018-09-26T00:37:06.269Z,3.87
2018-09-26T00:39:35.704Z,4.37
2018-09-26T00:42:05.199Z,3.97
2018-09-26T00:44:34.596Z,4.17
2018-09-26T00:47:04.056Z,3.70
2018-09-26T00:49:36.477Z,3.90
2018-09-26T00:52:05.925Z,4.60
2018-09-26T00:54:37.257Z,4.10
2018-09-26T00:57:06.740Z,4.00
2018-09-26T00:59:36.176Z,5.13
2018-09-26T01:02:05.854Z,4.67
2018-09-26T01:04:40.877Z,4.13
2018-09-26T01:07:10.208Z,4.53
2018-09-26T01:09:39.684Z,4.10
2018-09-26T01:12:10.643Z,4.27
2018-09-26T01:14:40.014Z,3.97
2018-09-26T01:17:09.490Z,4.00
2018-09-26T01:19:38.850Z,4.73
2018-09-26T01:22:08.382Z,4.33
2018-09-26T01:24:37.886Z,4.47
2018-09-26T01:27:08.700Z,4.30
2018-09-26T01:29:38.123Z,4.10
2018-09-26T01:32:07.562Z,4.10
2018-09-26T01:34:37.046Z,4.13
2018-09-26T01:37:06.612Z,4.20
2018-09-26T01:39:35.924Z,4.30
2018-09-26T01:42:06.443Z,4.63
2018-09-26T01:44:35.841Z,4.20
2018-09-26T01:47:05.224Z,4.10
2018-09-26T01:49:34.602Z,4.03
2018-09-26T01:52:04.956Z,4.43
2018-09-26T01:54:34.452Z,4.30
2018-09-26T01:57:03.842Z,5.07
2018-09-26T01:59:34.216Z,3.97
2018-09-26T02:02:03.707Z,4.20
2018-09-26T02:04:33.113Z,4.27
2018-09-26T02:07:02.483Z,4.30
2018-09-26T02:09:31.853Z,4.30
2018-09-26T02:12:01.268Z,3.80
2018-09-26T02:14:30.799Z,4.60
2018-09-26T02:17:04.082Z,4.20
2018-09-26T02:19:37.353Z,4.23
2018-09-26T02:22:07.428Z,3.97
2018-09-26T02:24:36.801Z,4.60
2018-09-26T02:27:06.547Z,4.27
2018-09-26T02:29:35.941Z,4.27
2018-09-26T02:32:05.383Z,3.90
2018-09-26T02:34:35.486Z,4.13
2018-09-26T02:37:07.472Z,4.47
2018-09-26T02:39:37.495Z,4.20
2018-09-26T02:42:06.950Z,4.03
2018-09-26T02:44:37.279Z,4.00
2018-09-26T02:47:06.676Z,4.50
2018-09-26T02:49:36.643Z,5.07
2018-09-26T02:52:07.099Z,4.47
2018-09-26T02:54:36.529Z,4.33
2018-09-26T02:57:05.854Z,4.57
2018-09-26T02:59:35.440Z,4.90
2018-09-26T03:02:04.873Z,4.97
2018-09-26T03:04:35.063Z,5.03
2018-09-26T03:07:04.480Z,4.97
2018-09-26T03:09:33.989Z,4.80
2018-09-26T03:12:03.411Z,4.80
2018-09-26T03:14:32.763Z,4.90
2018-09-26T03:17:04.200Z,4.57
2018-09-26T03:19:35.674Z,4.63
2018-09-26T03:22:05.208Z,4.23
2018-09-26T03:24:34.570Z,4.63
2018-09-26T03:27:03.967Z,4.10
2018-09-26T03:29:33.984Z,4.80
2018-09-26T03:32:03.347Z,4.77
2018-09-26T03:34:32.889Z,5.00
2018-09-26T03:37:02.219Z,4.47
2018-09-26T03:39:31.634Z,3.90
2018-09-26T03:42:01.300Z,3.93
2018-09-26T03:44:30.754Z,4.10
2018-09-26T03:47:00.086Z,4.60
2018-09-26T03:49:30.474Z,4.67
2018-09-26T03:51:59.830Z,4.70
2018-09-26T03:54:29.203Z,4.37
2018-09-26T03:56:58.544Z,4.30
2018-09-26T03:59:27.927Z,4.43
2018-09-26T04:01:57.303Z,4.30
2018-09-26T04:04:26.684Z,4.10
2018-09-26T04:06:56.827Z,4.10
2018-09-26T04:09:27.032Z,4.33
2018-09-26T04:11:56.441Z,4.00
2018-09-26T04:14:25.776Z,4.50
2018-09-26T04:16:56.245Z,4.50
2018-09-26T04:19:25.876Z,4.03
2018-09-26T04:21:55.327Z,4.30
2018-09-26T04:24:24.695Z,3.80
2018-09-26T04:26:54.541Z,4.40
2018-09-26T04:29:24.306Z,4.20
2018-09-26T04:31:54.696Z,3.87
2018-09-26T04:34:25.071Z,4.17
2018-09-26T04:36:54.515Z,4.63
2018-09-26T04:39:24.847Z,4.00
2018-09-26T04:41:54.419Z,4.77
2018-09-26T04:44:25.787Z,3.73
2018-09-26T04:46:55.124Z,4.43
2018-09-26T04:49:24.671Z,4.40
2018-09-26T04:51:56.127Z,4.67
2018-09-26T04:54:25.581Z,4.23
2018-09-26T04:56:54.959Z,3.40
2018-09-26T04:59:25.903Z,4.77
2018-09-26T05:01:56.284Z,3.53
2018-09-26T05:04:26.142Z,4.40
2018-09-26T05:06:55.692Z,4.20
2018-09-26T05:09:25.188Z,5.37
2018-09-26T05:11:54.611Z,5.00
2018-09-26T05:14:24.095Z,5.10
2018-09-26T05:16:53.545Z,5.07
2018-09-26T05:19:23.003Z,4.67
2018-09-26T05:21:53.366Z,5.10
2018-09-26T05:24:22.776Z,4.23
2018-09-26T05:26:52.145Z,5.20
2018-09-26T05:29:22.558Z,4.83
2018-09-26T05:31:52.110Z,4.53
2018-09-26T05:34:21.435Z,4.87
2018-09-26T05:36:50.931Z,4.00
2018-09-26T05:39:20.304Z,4.57
2018-09-26T05:41:49.807Z,4.10
2018-09-26T05:44:19.214Z,4.43
2018-09-26T05:46:49.520Z,3.77
2018-09-26T05:49:18.846Z,3.90
2018-09-26T05:51:48.254Z,4.13
2018-09-26T05:54:17.629Z,4.43
2018-09-26T05:56:47.022Z,4.53
2018-09-26T05:59:20.251Z,4.60
2018-09-26T06:01:50.304Z,4.83
2018-09-26T06:04:19.817Z,4.90
2018-09-26T06:06:49.220Z,3.97
2018-09-26T06:09:18.654Z,4.90
2018-09-26T06:11:48.047Z,3.70
2018-09-26T06:14:17.490Z,3.37
2018-09-26T06:16:48.169Z,3.83
2018-09-26T06:19:17.699Z,3.53
2018-09-26T06:21:47.162Z,4.60
2018-09-26T06:24:16.583Z,3.83
2018-09-26T06:26:45.969Z,4.03
2018-09-26T06:29:16.344Z,4.23
2018-09-26T06:31:46.311Z,4.07
2018-09-26T06:34:15.686Z,3.70
2018-09-26T06:36:45.229Z,3.70
2018-09-26T06:39:14.553Z,3.93
2018-09-26T06:41:44.033Z,3.40
2018-09-26T06:44:13.342Z,3.43
2018-09-26T06:46:42.701Z,3.77
2018-09-26T06:49:12.044Z,3.87
2018-09-26T06:51:41.422Z,3.60
2018-09-26T06:54:10.877Z,3.43
2018-09-26T06:56:40.323Z,3.40
2018-09-26T06:59:11.825Z,3.30
2018-09-26T07:01:41.311Z,3.50
2018-09-26T07:04:10.713Z,4.03
2018-09-26T07:06:41.197Z,4.07
2018-09-26T07:09:11.324Z,3.60
2018-09-26T07:11:40.744Z,3.80
2018-09-26T07:14:11.395Z,3.50
2018-09-26T07:16:41.041Z,4.30
2018-09-26T07:19:12.865Z,3.57
2018-09-26T07:21:43.339Z,3.67
2018-09-26T07:24:12.866Z,3.60
2018-09-26T07:26:42.324Z,6.50
2018-09-26T07:29:11.954Z,5.53
2018-09-26T07:31:41.343Z,6.47
2018-09-26T07:34:11.771Z,6.60
2018-09-26T07:36:41.844Z,6.07
2018-09-26T07:39:13.007Z,5.30
2018-09-26T07:41:42.378Z,6.30
2018-09-26T07:44:12.819Z,7.43
2018-09-26T07:46:43.340Z,8.67
2018-09-26T07:49:12.650Z,9.60
2018-09-26T07:51:42.770Z,8.53
2018-09-26T07:54:12.107Z,8.40
2018-09-26T07:56:41.563Z,8.53
2018-09-26T07:59:11.614Z,7.03
2018-09-26T08:01:41.041Z,6.53
2018-09-26T08:04:10.457Z,7.50
2018-09-26T08:06:39.836Z,8.90
2018-09-26T08:09:10.260Z,9.07
2018-09-26T08:11:39.599Z,10.20
2018-09-26T08:14:08.995Z,10.73
2018-09-26T08:16:38.491Z,10.40
2018-09-26T08:19:08.043Z,11.13
2018-09-26T08:21:37.433Z,10.47
2018-09-26T08:24:07.023Z,9.97
2018-09-26T08:26:37.008Z,9.50
2018-09-26T08:29:06.352Z,9.23
2018-09-26T08:31:35.771Z,9.73
2018-09-26T08:34:05.375Z,11.70
2018-09-26T08:36:35.769Z,10.37
2018-09-26T08:39:09.307Z,10.43
2018-09-26T08:41:38.739Z,10.73
2018-09-26T08:44:09.301Z,10.77
2018-09-26T08:46:38.865Z,11.27
2018-09-26T08:49:08.257Z,10.53
2018-09-26T08:51:38.852Z,10.73
2018-09-26T08:54:08.410Z,10.07
2018-09-26T08:56:38.828Z,10.83
2018-09-26T08:59:08.331Z,9.90
2018-09-26T09:01:42.977Z,10.30
2018-09-26T09:04:12.407Z,9.60
2018-09-26T09:06:41.895Z,7.83
2018-09-26T09:09:11.280Z,7.93
2018-09-26T09:11:40.780Z,8.50
2018-09-26T09:14:10.325Z,7.27
2018-09-26T09:16:39.830Z,7.43
2018-09-26T09:19:10.294Z,7.23
2018-09-26T09:21:39.831Z,7.30
2018-09-26T09:24:09.337Z,7.60
2018-09-26T09:26:38.721Z,7.40
2018-09-26T09:29:08.175Z,7.20
2018-09-26T09:31:38.149Z,7.47
2018-09-26T09:34:07.655Z,7.57
2018-09-26T09:36:37.160Z,6.07
2018-09-26T09:39:08.389Z,6.37
2018-09-26T09:41:37.985Z,6.93
2018-09-26T09:44:07.752Z,7.27
2018-09-26T09:46:37.370Z,6.83
2018-09-26T09:49:07.161Z,7.10
2018-09-26T09:51:36.589Z,6.93
2018-09-26T09:54:11.095Z,6.50
2018-09-26T09:56:40.463Z,6.60
2018-09-26T09:59:09.885Z,6.87
2018-09-26T10:01:39.471Z,7.13
2018-09-26T10:04:08.831Z,7.70
2018-09-26T10:06:38.217Z,7.27
2018-09-26T10:09:08.204Z,6.90
2018-09-26T10:11:37.643Z,7.60
2018-09-26T10:14:07.065Z,7.37
2018-09-26T10:16:37.453Z,7.80
2018-09-26T10:19:06.919Z,7.87
2018-09-26T10:21:36.188Z,7.77
2018-09-26T10:24:05.461Z,7.83
2018-09-26T10:26:34.832Z,8.27
2018-09-26T10:29:04.237Z,8.90
2018-09-26T10:31:35.347Z,8.93
2018-09-26T10:34:04.793Z,8.43
2018-09-26T10:36:34.111Z,8.77
2018-09-26T10:39:03.997Z,8.50
2018-09-26T10:41:33.383Z,8.97
2018-09-26T10:44:03.848Z,9.47
2018-09-26T10:46:33.119Z,9.43
2018-09-26T10:49:02.323Z,8.40
2018-09-26T10:51:31.642Z,8.07
2018-09-26T10:54:00.964Z,8.60
2018-09-26T10:56:30.361Z,8.70
2018-09-26T10:58:59.582Z,8.70
2018-09-26T11:01:28.909Z,8.43
2018-09-26T11:03:58.456Z,8.53
2018-09-26T11:06:27.757Z,8.27
2018-09-26T11:08:57.272Z,8.30
2018-09-26T11:11:26.528Z,8.47
2018-09-26T11:13:56.953Z,8.00
2018-09-26T11:16:26.312Z,8.87
2018-09-26T11:18:55.656Z,8.50
2018-09-26T11:21:24.892Z,8.20
2018-09-26T11:23:54.405Z,9.30
2018-09-26T11:26:23.889Z,8.47
2018-09-26T11:28:53.234Z,9.03
2018-09-26T11:31:22.533Z,9.23
2018-09-26T11:33:51.895Z,8.43
2018-09-26T11:36:21.143Z,8.53
2018-09-26T11:38:50.551Z,8.17
2018-09-26T11:41:19.835Z,9.20
2018-09-26T11:43:49.101Z,7.97
2018-09-26T11:46:18.597Z,8.70
2018-09-26T11:48:47.980Z,8.57
2018-09-26T11:51:17.348Z,8.03
2018-09-26T11:53:46.608Z,9.27
2018-09-26T11:56:15.945Z,8.30
2018-09-26T11:58:45.241Z,8.33
2018-09-26T12:01:15.583Z,7.50
2018-09-26T12:03:44.939Z,9.07
2018-09-26T12:06:16.204Z,8.53
2018-09-26T12:08:45.514Z,9.43
2018-09-26T12:11:14.804Z,10.10
2018-09-26T12:13:44.270Z,9.27
2018-09-26T12:16:13.633Z,8.83
2018-09-26T12:18:43.902Z,9.30
2018-09-26T12:21:13.239Z,9.10
2018-09-26T12:23:42.503Z,9.57
2018-09-26T12:26:12.860Z,10.80
2018-09-26T12:28:42.171Z,10.10
2018-09-26T12:31:11.450Z,9.67
2018-09-26T12:33:40.703Z,11.13
2018-09-26T12:36:10.215Z,11.20
2018-09-26T12:38:39.409Z,11.37
2018-09-26T12:41:08.681Z,10.67
2018-09-26T12:43:38.069Z,10.03
2018-09-26T12:46:07.420Z,10.50
2018-09-26T12:48:36.730Z,9.87
2018-09-26T12:51:06.047Z,10.23
2018-09-26T12:53:35.491Z,10.60
2018-09-26T12:56:04.818Z,10.03
2018-09-26T12:58:34.139Z,9.60
2018-09-26T13:01:04.490Z,10.27
2018-09-26T13:03:33.835Z,9.33
2018-09-26T13:06:03.127Z,10.20
2018-09-26T13:08:32.412Z,9.00
2018-09-26T13:11:01.864Z,8.67
2018-09-26T13:13:31.192Z,9.40
2018-09-26T13:16:00.479Z,9.60
2018-09-26T13:18:29.804Z,9.77
2018-09-26T13:20:59.169Z,10.17
2018-09-26T13:23:28.577Z,10.43
2018-09-26T13:25:57.898Z,11.03
2018-09-26T13:28:29.433Z,10.87
2018-09-26T13:30:58.761Z,11.03
2018-09-26T13:33:28.006Z,11.77
2018-09-26T13:35:57.314Z,11.37
2018-09-26T13:38:26.646Z,10.20
2018-09-26T13:40:55.973Z,10.53
2018-09-26T13:43:25.927Z,9.90
2018-09-26T13:45:55.391Z,10.27
2018-09-26T13:48:24.646Z,9.77
2018-09-26T13:50:54.560Z,8.37
2018-09-26T13:53:23.819Z,9.37
2018-09-26T13:55:53.116Z,10.27
2018-09-26T13:58:22.464Z,10.10
2018-09-26T14:00:52.302Z,9.60
2018-09-26T14:03:21.585Z,9.33
2018-09-26T14:05:50.889Z,8.73
2018-09-26T14:08:20.236Z,9.17
2018-09-26T14:10:49.597Z,8.90
2018-09-26T14:13:20.664Z,9.03
2018-09-26T14:15:50.108Z,8.93
2018-09-26T14:18:19.479Z,8.83
2018-09-26T14:20:48.907Z,8.70
2018-09-26T14:23:18.190Z,8.43
2018-09-26T14:25:47.423Z,8.17
2018-09-26T14:28:16.756Z,7.30
2018-09-26T14:30:46.088Z,7.20
2018-09-26T14:33:15.332Z,6.67
2018-09-26T14:35:44.548Z,6.90
2018-09-26T14:38:13.917Z,7.10
2018-09-26T14:40:43.201Z,7.10
2018-09-26T14:43:12.517Z,6.83
2018-09-26T14:45:41.849Z,7.30
2018-09-26T14:48:12.040Z,7.03
2018-09-26T14:50:43.703Z,6.60
2018-09-26T14:53:13.051Z,7.43
2018-09-26T14:55:42.413Z,8.20
2018-09-26T14:58:11.779Z,8.00
2018-09-26T15:00:40.997Z,7.37
2018-09-26T15:03:10.288Z,6.40
2018-09-26T15:05:39.561Z,6.53
2018-09-26T15:08:08.979Z,6.73
2018-09-26T15:10:38.319Z,6.57
2018-09-26T15:13:07.635Z,6.10
2018-09-26T15:15:36.920Z,6.60
2018-09-26T15:18:06.232Z,6.27
2018-09-26T15:20:35.778Z,7.17
2018-09-26T15:23:04.947Z,6.87
2018-09-26T15:25:34.272Z,6.93
2018-09-26T15:28:03.527Z,7.50
2018-09-26T15:30:33.050Z,7.00
2018-09-26T15:33:02.342Z,5.87
2018-09-26T15:35:31.763Z,7.17
2018-09-26T15:38:02.331Z,7.20
2018-09-26T15:40:31.786Z,6.60
2018-09-26T15:43:02.151Z,7.10
2018-09-26T15:45:31.686Z,7.20
2018-09-26T15:48:01.102Z,6.40
2018-09-26T15:50:30.420Z,7.20
2018-09-26T15:52:59.781Z,6.93
2018-09-26T15:55:29.215Z,6.47
2018-09-26T15:57:58.503Z,6.70
2018-09-26T16:00:27.848Z,6.97
2018-09-26T16:02:57.275Z,6.10
2018-09-26T16:05:27.196Z,7.40
2018-09-26T16:07:56.497Z,6.90
2018-09-26T16:10:25.922Z,7.00
2018-09-26T16:12:55.265Z,6.53
2018-09-26T16:15:24.558Z,6.63
2018-09-26T16:17:53.848Z,6.43
2018-09-26T16:20:23.481Z,6.70
2018-09-26T16:22:52.947Z,7.00
2018-09-26T16:25:22.378Z,6.40
2018-09-26T16:27:51.605Z,6.67
2018-09-26T16:30:20.940Z,6.87
2018-09-26T16:32:51.137Z,6.77
2018-09-26T16:35:20.411Z,6.27
2018-09-26T16:37:51.841Z,6.43
2018-09-26T16:40:22.259Z,7.03
2018-09-26T16:42:55.424Z,6.90
2018-09-26T16:45:24.886Z,6.93
2018-09-26T16:47:54.075Z,6.97
2018-09-26T16:50:24.056Z,7.60
2018-09-26T16:52:53.491Z,6.70
2018-09-26T16:55:23.868Z,7.00
2018-09-26T16:57:53.180Z,7.90
2018-09-26T17:00:22.674Z,7.73
2018-09-26T17:02:51.959Z,7.70
2018-09-26T17:05:21.355Z,8.07
2018-09-26T17:07:50.987Z,8.37
2018-09-26T17:10:20.550Z,8.17
2018-09-26T17:12:49.829Z,8.60
2018-09-26T17:15:19.338Z,8.43
2018-09-26T17:17:48.865Z,9.20
2018-09-26T17:20:18.273Z,9.70
2018-09-26T17:22:47.618Z,9.60
2018-09-26T17:25:16.961Z,10.50
2018-09-26T17:27:46.351Z,9.27
2018-09-26T17:30:17.623Z,9.97
2018-09-26T17:32:47.081Z,10.10
2018-09-26T17:35:16.699Z,11.40
2018-09-26T17:37:46.028Z,11.27
2018-09-26T17:40:15.426Z,12.07
2018-09-26T17:42:45.525Z,11.63
2018-09-26T17:45:14.849Z,11.90
2018-09-26T17:47:44.903Z,11.60
2018-09-26T17:50:14.135Z,11.60
2018-09-26T17:52:44.081Z,11.43
2018-09-26T17:55:13.459Z,11.70
2018-09-26T17:57:42.772Z,11.07
2018-09-26T18:00:12.147Z,11.30
2018-09-26T18:02:41.444Z,12.10
2018-09-26T18:05:11.844Z,12.30
2018-09-26T18:07:41.444Z,11.13
2018-09-26T18:10:11.361Z,11.40
2018-09-26T18:12:41.106Z,11.50
2018-09-26T18:15:11.755Z,11.13
2018-09-26T18:17:41.177Z,11.77
2018-09-26T18:20:10.541Z,12.20
2018-09-26T18:22:40.752Z,12.03
2018-09-26T18:25:11.273Z,12.30
2018-09-26T18:27:40.670Z,11.73
2018-09-26T18:30:10.025Z,13.30
2018-09-26T18:32:39.505Z,14.03
2018-09-26T18:35:08.831Z,13.83
2018-09-26T18:37:38.263Z,13.60
2018-09-26T18:40:07.690Z,14.10
2018-09-26T18:42:37.084Z,14.10
2018-09-26T18:45:07.061Z,12.50
2018-09-26T18:47:36.425Z,13.23
2018-09-26T18:50:05.709Z,12.97
2018-09-26T18:52:34.979Z,13.10
2018-09-26T18:55:04.270Z,13.30
2018-09-26T18:57:33.836Z,12.47
2018-09-26T19:00:03.176Z,12.87
2018-09-26T19:02:32.576Z,14.23
2018-09-26T19:05:02.104Z,13.80
2018-09-26T19:07:31.383Z,12.43
2018-09-26T19:10:01.959Z,11.93
2018-09-26T19:12:31.268Z,13.17
2018-09-26T19:15:00.520Z,13.57
2018-09-26T19:17:29.903Z,12.33
2018-09-26T19:19:59.202Z,11.63
2018-09-26T19:22:28.580Z,12.10
2018-09-26T19:24:57.912Z,10.87
2018-09-26T19:27:27.227Z,11.97
2018-09-26T19:29:57.619Z,11.30
2018-09-26T19:32:26.899Z,11.70
2018-09-26T19:34:56.183Z,11.17
2018-09-26T19:37:25.742Z,11.57
2018-09-26T19:39:55.071Z,13.03
2018-09-26T19:42:25.470Z,13.40
2018-09-26T19:44:54.737Z,12.07
2018-09-26T19:47:24.054Z,12.03
2018-09-26T19:49:53.506Z,11.47
2018-09-26T19:52:22.900Z,12.53
2018-09-26T19:54:52.152Z,13.60
2018-09-26T19:57:22.575Z,11.37
2018-09-26T19:59:52.049Z,11.27
2018-09-26T20:02:21.349Z,12.07
2018-09-26T20:04:50.617Z,10.33
2018-09-26T20:07:19.879Z,10.77
2018-09-26T20:09:49.299Z,11.60
2018-09-26T20:12:18.711Z,11.20
2018-09-26T20:14:48.013Z,10.77
2018-09-26T20:17:17.244Z,11.03
2018-09-26T20:19:46.854Z,10.80
2018-09-26T20:22:16.166Z,11.30
2018-09-26T20:24:45.441Z,11.00
2018-09-26T20:27:14.957Z,10.67
2018-09-26T20:29:44.397Z,11.63
2018-09-26T20:32:13.603Z,11.77
2018-09-26T20:34:43.267Z,10.73
2018-09-26T20:37:12.784Z,11.30
2018-09-26T20:39:42.162Z,9.90
2018-09-26T20:42:11.543Z,10.57
2018-09-26T20:44:40.830Z,8.80
2018-09-26T20:47:10.810Z,8.77
2018-09-26T20:49:42.083Z,9.23
2018-09-26T20:52:11.645Z,9.17
2018-09-26T20:54:40.907Z,9.80
2018-09-26T20:57:10.249Z,8.60
2018-09-26T20:59:40.848Z,9.67
2018-09-26T21:02:10.103Z,11.10
2018-09-26T21:04:39.423Z,10.27
2018-09-26T21:07:08.686Z,10.10
2018-09-26T21:09:37.949Z,10.23
2018-09-26T21:12:07.341Z,10.87
2018-09-26T21:14:36.639Z,9.97
2018-09-26T21:17:05.848Z,10.97
2018-09-26T21:19:35.125Z,11.77
2018-09-26T21:22:04.387Z,12.10
2018-09-26T21:24:34.446Z,11.47
2018-09-26T21:27:03.723Z,11.27
2018-09-26T21:29:33.011Z,12.67
2018-09-26T21:32:03.306Z,14.20
2018-09-26T21:34:32.566Z,14.07
2018-09-26T21:37:01.832Z,15.90
2018-09-26T21:39:31.110Z,15.23
2018-09-26T21:42:00.442Z,16.90
2018-09-26T21:44:29.762Z,15.63
2018-09-26T21:46:59.039Z,17.13
2018-09-26T21:49:28.361Z,15.23
2018-09-26T21:51:57.824Z,13.83
2018-09-26T21:54:27.120Z,16.63
2018-09-26T21:56:57.409Z,15.70
2018-09-26T21:59:26.650Z,15.10
2018-09-26T22:01:56.430Z,14.60
2018-09-26T22:04:26.271Z,12.50
2018-09-26T22:06:56.136Z,12.47
2018-09-26T22:09:26.581Z,11.93
2018-09-26T22:11:56.595Z,13.70
2018-09-26T22:14:26.403Z,12.97
2018-09-26T22:16:56.144Z,12.93
2018-09-26T22:19:26.213Z,12.23
2018-09-26T22:21:56.167Z,12.23
2018-09-26T22:24:25.996Z,11.93
2018-09-26T22:26:55.768Z,11.30
2018-09-26T22:29:26.524Z,10.63
2018-09-26T22:32:01.165Z,11.60
2018-09-26T22:34:30.935Z,12.27
2018-09-26T22:37:00.712Z,12.93
2018-09-26T22:39:30.544Z,13.53
2018-09-26T22:42:00.284Z,12.80
2018-09-26T22:44:30.307Z,12.93
2018-09-26T22:47:00.339Z,13.50
2018-09-26T22:49:30.229Z,11.93
2018-09-26T22:51:59.994Z,11.53
2018-09-26T22:54:29.920Z,11.23
2018-09-26T22:57:00.675Z,11.80
2018-09-26T22:59:30.473Z,11.67
2018-09-26T23:02:00.638Z,11.37
2018-09-26T23:04:31.173Z,11.47
2018-09-26T23:07:00.987Z,9.23
2018-09-26T23:09:30.799Z,9.27
2018-09-26T23:12:00.581Z,8.80
2018-09-26T23:14:30.524Z,7.87
2018-09-26T23:17:00.325Z,9.37
2018-09-26T23:19:30.135Z,9.03
2018-09-26T23:21:59.880Z,7.60
2018-09-26T23:24:29.603Z,9.07
2018-09-26T23:26:59.395Z,9.30
2018-09-26T23:29:29.198Z,8.80
2018-09-26T23:31:59.020Z,9.33
2018-09-26T23:34:28.932Z,9.77
2018-09-26T23:36:58.680Z,9.57
2018-09-26T23:39:28.589Z,9.17
2018-09-26T23:41:59.101Z,9.57
2018-09-26T23:44:28.969Z,9.10
2018-09-26T23:46:58.772Z,9.53
2018-09-26T23:49:28.601Z,8.30
2018-09-26T23:51:58.459Z,8.10
2018-09-26T23:54:29.327Z,8.10
2018-09-26T23:56:59.124Z,8.10
2018-09-26T23:59:28.970Z,9.33
